Time;durP1;ratioP1;P1;durP2;ratioP2;P2;SDS_P1;SDS_P2;PMS_P1;PMS_P2;Temp;Humidity;BMP_temperature;BMP_pressure;BME280_temperature;BME280_humidity;BME280_pressure;Samples;Min_cycle;Max_cycle;Signal;HPM_P1;HPM_P2
2022/05/04 00:00:10;;;;;;;12.20;4.33;;;9.50;99.90;;;;;;4993597;28;20184;-79
2022/05/04 00:02:39;;;;;;;16.87;4.00;;;9.50;99.90;;;;;;4994593;28;20176;-79
2022/05/04 00:05:06;;;;;;;8.80;4.90;;;9.60;99.90;;;;;;4994824;28;20213;-79
2022/05/04 00:07:32;;;;;;;8.90;4.50;;;9.40;99.90;;;;;;4994622;28;20266;-79
2022/05/04 00:09:58;;;;;;;17.33;4.63;;;9.30;99.90;;;;;;4994649;28;20180;-80
2022/05/04 00:12:24;;;;;;;12.90;4.53;;;9.30;99.90;;;;;;4994143;28;20172;-80
2022/05/04 00:14:50;;;;;;;12.13;4.97;;;9.30;99.90;;;;;;4995604;28;20192;-79
2022/05/04 00:17:15;;;;;;;13.20;4.40;;;9.20;99.90;;;;;;4996832;28;20182;-80
2022/05/04 00:19:41;;;;;;;12.87;4.10;;;9.20;99.90;;;;;;4996980;28;20175;-79
2022/05/04 00:22:06;;;;;;;13.13;5.03;;;9.10;99.90;;;;;;4994788;28;20675;-80
2022/05/04 00:24:32;;;;;;;14.00;4.20;;;9.10;99.90;;;;;;4996038;28;20681;-80
2022/05/04 00:26:57;;;;;;;10.13;4.13;;;9.10;99.90;;;;;;4995647;28;20218;-80
2022/05/04 00:29:23;;;;;;;15.67;5.17;;;9.00;99.90;;;;;;4996608;28;20175;-79
2022/05/04 00:31:48;;;;;;;11.37;4.67;;;9.10;99.90;;;;;;4995792;28;20255;-80
2022/05/04 00:34:14;;;;;;;11.60;5.30;;;9.00;99.90;;;;;;4996394;28;20199;-80
2022/05/04 00:36:40;;;;;;;14.07;4.67;;;8.90;99.90;;;;;;4996011;28;20176;-79
2022/05/04 00:39:06;;;;;;;12.37;4.80;;;8.90;99.90;;;;;;4996780;28;20262;-80
2022/05/04 00:41:31;;;;;;;13.10;4.90;;;8.90;99.90;;;;;;4995966;28;20216;-79
2022/05/04 00:43:57;;;;;;;10.57;4.77;;;8.80;99.90;;;;;;4995114;28;20187;-79
2022/05/04 00:46:23;;;;;;;11.37;4.90;;;8.80;99.90;;;;;;4994743;28;20200;-80
2022/05/04 00:48:49;;;;;;;13.90;4.97;;;8.80;99.90;;;;;;4993384;28;20163;-80
2022/05/04 00:51:15;;;;;;;8.70;4.70;;;8.70;99.90;;;;;;4995756;28;20696;-80
2022/05/04 00:53:41;;;;;;;15.03;4.60;;;8.80;99.90;;;;;;4996084;28;20188;-80
2022/05/04 00:56:08;;;;;;;12.57;5.07;;;8.70;99.90;;;;;;4996150;28;20173;-80
2022/05/04 01:01:21;;;;;;;10.23;5.33;;;8.60;99.90;;;;;;4995802;28;20229;-80
2022/05/04 01:03:46;;;;;;;13.80;5.00;;;8.50;99.90;;;;;;4995282;28;20294;-80
2022/05/04 01:06:12;;;;;;;17.13;5.00;;;8.60;99.90;;;;;;4994169;28;20238;-80
2022/05/04 01:08:38;;;;;;;9.37;4.60;;;8.50;99.90;;;;;;4995547;28;20168;-80
2022/05/04 01:11:04;;;;;;;11.43;5.40;;;8.50;99.90;;;;;;4995207;28;20172;-80
2022/05/04 01:13:30;;;;;;;11.90;5.13;;;8.50;99.90;;;;;;4995448;28;20184;-80
2022/05/04 01:15:56;;;;;;;11.57;5.17;;;8.50;99.90;;;;;;4995306;28;20541;-80
2022/05/04 01:18:22;;;;;;;12.53;5.23;;;8.40;99.90;;;;;;4994494;28;20185;-80
2022/05/04 01:20:47;;;;;;;13.50;5.20;;;8.40;99.90;;;;;;4994598;28;20180;-80
2022/05/04 01:23:13;;;;;;;10.70;5.13;;;8.30;99.90;;;;;;4994290;28;20593;-79
2022/05/04 01:25:39;;;;;;;17.20;5.93;;;8.30;99.90;;;;;;4992566;28;20203;-79
2022/05/04 01:28:05;;;;;;;15.40;4.90;;;8.20;99.90;;;;;;4993446;28;20224;-80
2022/05/04 01:30:32;;;;;;;16.27;5.53;;;8.20;99.90;;;;;;4993228;28;20659;-79
2022/05/04 01:33:00;;;;;;;18.13;5.83;;;8.00;99.90;;;;;;4991733;28;20574;-80
2022/05/04 01:35:26;;;;;;;13.43;5.23;;;8.10;99.90;;;;;;4996021;28;20556;-80
2022/05/04 01:37:51;;;;;;;13.50;5.77;;;8.20;99.90;;;;;;4996484;28;20172;-80
2022/05/04 01:40:17;;;;;;;18.37;5.63;;;8.20;99.90;;;;;;4995621;28;20171;-79
2022/05/04 01:42:43;;;;;;;14.67;5.50;;;8.20;99.90;;;;;;4995768;28;20238;-80
2022/05/04 01:45:09;;;;;;;19.67;5.67;;;8.10;99.90;;;;;;4996719;28;20660;-79
2022/05/04 01:47:36;;;;;;;26.73;6.87;;;8.00;99.90;;;;;;4993763;28;20228;-79
2022/05/04 01:50:03;;;;;;;10.83;5.67;;;8.00;99.90;;;;;;4995872;28;20648;-80
2022/05/04 01:52:29;;;;;;;12.17;5.20;;;7.90;99.90;;;;;;4996003;28;20560;-80
2022/05/04 01:54:55;;;;;;;12.07;6.03;;;7.90;99.90;;;;;;4994706;28;20285;-80
2022/05/04 01:57:21;;;;;;;17.20;6.57;;;7.90;99.90;;;;;;4996481;28;20219;-79
2022/05/04 01:59:46;;;;;;;16.20;5.57;;;7.90;99.90;;;;;;4995324;28;20237;-80
2022/05/04 02:02:12;;;;;;;12.67;5.77;;;8.00;99.90;;;;;;4993909;28;20175;-80
2022/05/04 02:04:38;;;;;;;15.43;6.10;;;7.80;99.90;;;;;;4994881;28;20252;-79
2022/05/04 02:07:07;;;;;;;13.80;5.77;;;7.90;99.90;;;;;;4995358;28;20210;-80
2022/05/04 02:09:32;;;;;;;18.87;5.97;;;7.80;99.90;;;;;;4996137;28;20265;-79
2022/05/04 02:11:58;;;;;;;15.37;5.73;;;7.70;99.90;;;;;;4994382;28;20214;-80
2022/05/04 02:14:25;;;;;;;12.27;5.80;;;7.50;99.90;;;;;;4994685;28;20210;-80
2022/05/04 02:16:50;;;;;;;17.40;5.90;;;7.60;99.90;;;;;;4994686;28;20179;-80
2022/05/04 02:19:16;;;;;;;19.20;5.87;;;7.70;99.90;;;;;;4995185;28;20553;-79
2022/05/04 02:21:42;;;;;;;11.83;5.37;;;7.60;99.90;;;;;;4991855;28;20186;-79
2022/05/04 02:24:08;;;;;;;17.43;6.03;;;7.60;99.90;;;;;;4992295;28;20753;-79
2022/05/04 02:26:34;;;;;;;19.60;6.27;;;7.50;99.90;;;;;;4990996;28;20565;-78
2022/05/04 02:28:59;;;;;;;19.60;6.60;;;7.50;99.90;;;;;;4990842;28;20182;-78
2022/05/04 02:31:25;;;;;;;13.57;5.97;;;7.50;99.90;;;;;;4991434;28;20669;-77
2022/05/04 02:33:50;;;;;;;21.60;6.30;;;7.50;99.90;;;;;;4990789;28;20202;-78
2022/05/04 02:39:00;;;;;;;17.77;6.23;;;7.50;99.90;;;;;;4992156;28;20177;-78
2022/05/04 02:41:25;;;;;;;19.33;6.40;;;7.40;99.90;;;;;;4991372;28;20178;-78
2022/05/04 02:43:51;;;;;;;17.40;6.40;;;7.40;99.90;;;;;;4991810;28;20253;-79
2022/05/04 02:46:18;;;;;;;20.43;6.47;;;7.40;99.90;;;;;;4991849;28;20201;-78
2022/05/04 02:48:45;;;;;;;20.50;5.93;;;7.30;99.90;;;;;;4988841;28;20597;-78
2022/05/04 02:51:11;;;;;;;14.90;5.97;;;7.30;99.90;;;;;;4995087;28;20173;-78
2022/05/04 02:53:37;;;;;;;19.40;5.97;;;7.20;99.90;;;;;;4994249;28;20195;-78
2022/05/04 02:56:02;;;;;;;22.60;6.63;;;7.20;99.90;;;;;;4994241;28;20172;-78
2022/05/04 02:58:28;;;;;;;18.47;7.10;;;7.20;99.90;;;;;;4995373;28;20244;-78
2022/05/04 03:00:54;;;;;;;18.87;6.40;;;7.20;99.90;;;;;;4995415;28;20658;-78
2022/05/04 03:03:20;;;;;;;21.30;7.00;;;7.10;99.90;;;;;;5004088;23;20175;-82
2022/05/04 03:05:45;;;;;;;16.63;6.10;;;7.00;99.90;;;;;;5043417;28;20216;-82
2022/05/04 03:08:11;;;;;;;22.27;6.40;;;7.20;99.90;;;;;;5043746;28;20201;-82
2022/05/04 03:13:21;;;;;;;29.87;7.30;;;7.10;99.90;;;;;;5063189;28;20166;-82
2022/05/04 03:15:46;;;;;;;16.50;6.60;;;6.90;99.90;;;;;;5044270;28;20169;-83
2022/05/04 03:18:12;;;;;;;15.63;6.27;;;7.00;99.90;;;;;;5044160;28;20207;-81
2022/05/04 03:20:38;;;;;;;23.97;7.63;;;7.10;99.90;;;;;;5046134;28;20262;-82
2022/05/04 03:23:03;;;;;;;19.43;6.17;;;7.20;99.90;;;;;;5046217;28;20552;-82
2022/05/04 03:25:29;;;;;;;17.73;5.97;;;7.10;99.90;;;;;;5046423;28;20269;-82
2022/05/04 03:27:55;;;;;;;17.27;6.23;;;7.10;99.90;;;;;;5045873;28;20197;-82
2022/05/04 03:30:20;;;;;;;23.53;6.73;;;7.20;99.90;;;;;;5045224;28;20252;-81
2022/05/04 03:32:46;;;;;;;20.33;6.53;;;7.00;99.90;;;;;;5043638;28;20193;-82
2022/05/04 03:35:12;;;;;;;17.83;6.83;;;6.90;99.90;;;;;;5045952;28;20260;-82
2022/05/04 03:37:37;;;;;;;24.13;7.00;;;6.80;99.90;;;;;;5047037;28;20204;-82
2022/05/04 03:40:03;;;;;;;31.63;8.00;;;6.90;99.90;;;;;;5046800;28;20182;-82
2022/05/04 03:42:29;;;;;;;23.07;6.90;;;6.80;99.90;;;;;;5045932;28;20732;-82
2022/05/04 03:44:56;;;;;;;21.23;6.97;;;6.70;99.90;;;;;;5046655;28;20213;-82
2022/05/04 03:47:21;;;;;;;19.70;7.27;;;6.70;99.90;;;;;;5046427;28;20284;-82
2022/05/04 03:49:47;;;;;;;22.97;7.83;;;6.80;99.90;;;;;;5045968;28;20639;-82
2022/05/04 03:52:13;;;;;;;21.93;6.97;;;6.70;99.90;;;;;;5045879;28;20250;-82
2022/05/04 03:54:38;;;;;;;13.60;6.43;;;6.60;99.90;;;;;;5046657;28;20236;-82
2022/05/04 03:57:05;;;;;;;19.23;6.90;;;6.70;99.90;;;;;;5046892;28;20200;-82
2022/05/04 03:59:31;;;;;;;16.43;6.90;;;6.70;99.90;;;;;;5046807;28;20205;-82
2022/05/04 04:01:57;;;;;;;19.37;6.67;;;6.50;99.90;;;;;;5046070;28;20200;-82
2022/05/04 04:04:22;;;;;;;20.03;7.20;;;6.60;99.90;;;;;;5045625;28;20203;-82
2022/05/04 04:06:48;;;;;;;26.03;7.30;;;6.60;99.90;;;;;;5044813;28;20207;-82
2022/05/04 04:09:14;;;;;;;18.77;6.90;;;6.50;99.90;;;;;;5044108;28;20642;-82
2022/05/04 04:11:39;;;;;;;19.10;8.27;;;6.40;99.90;;;;;;5045776;28;20173;-82
2022/05/04 04:14:05;;;;;;;21.67;7.20;;;6.60;99.90;;;;;;5044820;28;20226;-82
2022/05/04 04:16:31;;;;;;;19.57;7.13;;;6.80;99.90;;;;;;5045757;28;20295;-82
2022/05/04 04:18:56;;;;;;;18.23;7.10;;;6.60;99.90;;;;;;5045741;28;20201;-81
2022/05/04 04:24:07;;;;;;;20.37;7.13;;;6.70;99.90;;;;;;5062781;28;20180;-82
2022/05/04 04:26:34;;;;;;;17.27;6.80;;;6.90;99.90;;;;;;5044199;28;20209;-82
2022/05/04 04:29:00;;;;;;;24.07;6.93;;;6.90;99.90;;;;;;5045171;28;20178;-82
2022/05/04 04:31:26;;;;;;;20.30;7.27;;;6.90;99.90;;;;;;5044297;28;20197;-81
2022/05/04 04:33:51;;;;;;;18.60;7.17;;;6.90;99.90;;;;;;5044748;28;20641;-82
2022/05/04 04:36:17;;;;;;;22.47;7.07;;;6.90;99.90;;;;;;5045768;28;20198;-82
2022/05/04 04:38:43;;;;;;;18.27;6.97;;;6.80;99.90;;;;;;5045941;28;20545;-82
2022/05/04 04:41:09;;;;;;;18.30;7.10;;;6.80;99.90;;;;;;5045719;28;20184;-82
2022/05/04 04:43:34;;;;;;;18.13;7.03;;;6.80;99.90;;;;;;5040150;28;20545;-82
2022/05/04 04:46:00;;;;;;;17.00;6.70;;;7.00;99.90;;;;;;5044772;28;20200;-82
2022/05/04 04:48:26;;;;;;;20.23;6.63;;;6.80;99.90;;;;;;5040782;28;20292;-82
2022/05/04 04:50:51;;;;;;;20.23;6.83;;;6.90;99.90;;;;;;5040964;28;20184;-83
2022/05/04 04:53:17;;;;;;;20.50;6.57;;;6.90;99.90;;;;;;5042561;28;20180;-82
2022/05/04 04:55:46;;;;;;;21.33;7.27;;;6.90;99.90;;;;;;5042940;28;20223;-83
2022/05/04 04:58:13;;;;;;;18.93;6.53;;;7.20;99.90;;;;;;5041080;28;20197;-83
2022/05/04 05:00:39;;;;;;;22.83;6.33;;;7.20;99.90;;;;;;5045129;28;20180;-82
2022/05/04 05:03:05;;;;;;;15.30;6.30;;;7.20;99.90;;;;;;5043426;28;20687;-83
2022/05/04 05:05:32;;;;;;;18.37;6.20;;;7.30;99.90;;;;;;5044826;28;20702;-83
2022/05/04 05:07:58;;;;;;;16.83;6.17;;;7.30;99.90;;;;;;5044953;28;20661;-83
2022/05/04 05:10:23;;;;;;;17.07;6.00;;;7.40;99.90;;;;;;5044124;28;20179;-83
2022/05/04 05:12:51;;;;;;;22.57;6.47;;;7.40;99.90;;;;;;5044176;28;20203;-82
2022/05/04 05:18:02;;;;;;;16.37;5.93;;;7.60;99.90;;;;;;5064514;28;20226;-83
2022/05/04 05:20:28;;;;;;;21.10;6.40;;;7.70;99.90;;;;;;5045670;28;20161;-82
2022/05/04 05:22:53;;;;;;;15.93;5.93;;;7.90;99.90;;;;;;5042972;28;20188;-82
2022/05/04 05:25:19;;;;;;;18.57;6.17;;;8.10;99.90;;;;;;5044701;28;20252;-83
2022/05/04 05:27:45;;;;;;;19.77;7.03;;;8.20;99.90;;;;;;5044005;28;20278;-83
2022/05/04 05:30:13;;;;;;;13.03;5.53;;;8.30;99.90;;;;;;5043734;28;20165;-83
2022/05/04 05:32:39;;;;;;;19.47;6.37;;;8.30;99.90;;;;;;5042837;28;20223;-83
2022/05/04 05:35:05;;;;;;;24.37;6.40;;;8.00;99.90;;;;;;5045439;28;20595;-83
2022/05/04 05:37:31;;;;;;;16.83;5.87;;;8.20;99.90;;;;;;5046522;28;20231;-83
2022/05/04 05:39:57;;;;;;;22.90;5.93;;;8.00;99.90;;;;;;5044182;28;20177;-83
2022/05/04 05:42:22;;;;;;;20.93;6.27;;;8.10;99.90;;;;;;5046057;28;20231;-82
2022/05/04 05:44:48;;;;;;;21.87;6.10;;;7.80;99.90;;;;;;5045588;28;20614;-83
2022/05/04 05:47:13;;;;;;;20.83;7.27;;;8.00;99.90;;;;;;5045962;28;20209;-83
2022/05/04 05:49:39;;;;;;;19.40;5.67;;;8.20;99.90;;;;;;5048509;28;20181;-83
2022/05/04 05:52:08;;;;;;;19.10;6.00;;;8.30;99.90;;;;;;5047750;28;20208;-83
2022/05/04 05:54:33;;;;;;;23.13;6.57;;;8.70;99.90;;;;;;5046480;28;20189;-83
2022/05/04 05:56:59;;;;;;;17.60;6.03;;;9.00;99.90;;;;;;5043759;28;20197;-83
2022/05/04 05:59:25;;;;;;;19.07;5.83;;;9.00;99.90;;;;;;5043055;28;20562;-82
2022/05/04 06:01:50;;;;;;;12.80;4.83;;;8.80;99.90;;;;;;5043889;28;20175;-83
2022/05/04 06:04:16;;;;;;;20.00;4.93;;;9.10;99.90;;;;;;5044144;28;20222;-83
2022/05/04 06:06:41;;;;;;;11.90;4.80;;;9.60;99.90;;;;;;5044700;28;20667;-83
2022/05/04 06:09:07;;;;;;;18.90;5.50;;;9.90;99.90;;;;;;5040564;28;20171;-83
2022/05/04 06:11:34;;;;;;;17.30;4.83;;;9.90;99.90;;;;;;5037577;28;20177;-83
2022/05/04 06:14:00;;;;;;;19.33;5.03;;;10.20;99.90;;;;;;5036742;28;20629;-82
2022/05/04 06:16:25;;;;;;;13.40;4.60;;;10.50;99.90;;;;;;5040088;28;20204;-83
2022/05/04 06:18:51;;;;;;;11.43;4.40;;;10.50;99.90;;;;;;5041972;28;20541;-83
2022/05/04 06:21:17;;;;;;;14.23;4.53;;;10.30;99.90;;;;;;5041257;28;20687;-83
2022/05/04 06:23:42;;;;;;;16.03;4.57;;;10.60;99.90;;;;;;5041203;28;20214;-82
2022/05/04 06:26:10;;;;;;;11.10;4.60;;;10.80;99.90;;;;;;5048107;28;20250;-84
2022/05/04 06:28:36;;;;;;;14.87;4.40;;;11.10;99.90;;;;;;5045068;28;20637;-84
2022/05/04 06:36:30;;;;;;;15.67;4.90;;;11.70;99.90;;;;;;5061604;28;20207;-84
2022/05/04 06:38:55;;;;;;;19.33;4.53;;;11.70;99.90;;;;;;5043606;28;20655;-83
2022/05/04 06:41:21;;;;;;;14.17;5.43;;;11.90;99.90;;;;;;5043671;28;20181;-83
2022/05/04 06:43:47;;;;;;;14.33;4.17;;;12.00;99.90;;;;;;5043106;28;20185;-86
2022/05/04 06:46:13;;;;;;;16.57;4.47;;;12.00;99.90;;;;;;5041109;28;22471;-86
2022/05/04 06:48:40;;;;;;;21.50;4.83;;;12.60;99.90;;;;;;5041711;28;20177;-84
2022/05/04 06:51:06;;;;;;;13.30;4.10;;;12.90;99.30;;;;;;5042938;28;20590;-83
2022/05/04 06:53:32;;;;;;;17.20;4.60;;;13.00;98.40;;;;;;5045969;28;20188;-83
2022/05/04 06:55:57;;;;;;;20.67;4.77;;;13.40;97.70;;;;;;5042226;28;20181;-83
2022/05/04 06:58:23;;;;;;;15.23;4.20;;;13.40;97.20;;;;;;5046394;28;20253;-83
2022/05/04 07:00:48;;;;;;;14.23;4.40;;;13.50;97.60;;;;;;5041879;28;20192;-83
2022/05/04 07:03:14;;;;;;;14.77;4.30;;;13.10;97.90;;;;;;5041872;28;20284;-84
2022/05/04 07:05:40;;;;;;;18.60;4.40;;;12.90;98.10;;;;;;5045055;28;20208;-84
2022/05/04 07:08:06;;;;;;;9.17;4.07;;;13.30;97.90;;;;;;5041882;28;20334;-84
2022/05/04 07:10:32;;;;;;;16.90;4.50;;;13.10;96.60;;;;;;5043134;28;20174;-84
2022/05/04 07:12:57;;;;;;;13.93;4.63;;;12.80;97.90;;;;;;5042426;28;20608;-83
2022/05/04 07:15:23;;;;;;;15.47;4.37;;;12.80;97.30;;;;;;5039128;28;20173;-83
2022/05/04 07:17:49;;;;;;;17.23;4.70;;;12.50;99.20;;;;;;5041735;28;20193;-83
2022/05/04 07:20:14;;;;;;;10.93;4.10;;;12.90;98.00;;;;;;5041212;28;20183;-83
2022/05/04 07:22:40;;;;;;;16.73;4.80;;;12.90;98.50;;;;;;5040921;28;20647;-83
2022/05/04 07:25:06;;;;;;;42.87;5.43;;;12.90;98.60;;;;;;5037841;28;20181;-84
2022/05/04 07:27:32;;;;;;;16.77;4.10;;;13.30;99.00;;;;;;5037991;28;20275;-84
2022/05/04 07:29:58;;;;;;;15.03;4.33;;;13.40;97.90;;;;;;5038328;28;20272;-85
2022/05/04 07:32:23;;;;;;;13.30;4.57;;;14.20;96.30;;;;;;5038513;28;20169;-84
2022/05/04 07:34:49;;;;;;;13.53;4.87;;;14.00;97.00;;;;;;5038563;28;20176;-83
2022/05/04 07:37:14;;;;;;;13.37;4.80;;;14.50;95.40;;;;;;5039977;28;20197;-84
2022/05/04 07:42:25;;;;;;;10.43;4.00;;;14.60;94.90;;;;;;5058984;28;20181;-84
2022/05/04 07:44:57;;;;;;;18.00;6.07;;;14.80;94.40;;;;;;5038917;28;20176;-84
2022/05/04 07:47:22;;;;;;;15.80;4.43;;;14.80;93.70;;;;;;5038252;28;20598;-85
2022/05/04 07:49:48;;;;;;;12.03;4.07;;;15.00;93.60;;;;;;5039515;28;20176;-86
2022/05/04 07:52:14;;;;;;;14.73;4.33;;;15.10;93.20;;;;;;5039298;28;20660;-84
2022/05/04 07:54:39;;;;;;;12.23;4.30;;;14.80;93.60;;;;;;5039045;28;20197;-85
2022/05/04 07:57:05;;;;;;;17.00;4.90;;;14.90;93.60;;;;;;5038958;28;20193;-83
2022/05/04 07:59:31;;;;;;;12.27;4.40;;;14.30;93.70;;;;;;5038641;28;20169;-84
2022/05/04 08:04:40;;;;;;;11.57;4.67;;;13.90;93.60;;;;;;5057705;28;20561;-83
2022/05/04 08:07:06;;;;;;;12.93;4.43;;;14.40;94.30;;;;;;5039978;28;20205;-82
2022/05/04 08:09:36;;;;;;;19.37;5.00;;;13.80;96.00;;;;;;5038539;28;20790;-84
2022/05/04 08:12:03;;;;;;;12.50;4.70;;;13.90;95.80;;;;;;5037440;28;20197;-84
2022/05/04 08:14:29;;;;;;;13.53;4.20;;;14.30;95.30;;;;;;5037788;28;20276;-81
2022/05/04 08:16:54;;;;;;;18.33;4.47;;;14.20;93.70;;;;;;5055387;28;20696;-82
2022/05/04 08:19:20;;;;;;;18.10;4.93;;;14.10;94.90;;;;;;5037563;28;20194;-84
2022/05/04 08:21:45;;;;;;;15.17;4.83;;;14.00;94.60;;;;;;5037739;28;20234;-85
2022/05/04 08:24:11;;;;;;;18.17;4.47;;;14.50;94.90;;;;;;5038242;28;20181;-83
2022/05/04 08:26:37;;;;;;;15.23;4.70;;;14.50;94.80;;;;;;5038610;28;20225;-84
2022/05/04 08:29:03;;;;;;;16.30;4.73;;;14.40;94.60;;;;;;5039477;28;20173;-84
2022/05/04 08:31:29;;;;;;;15.87;5.13;;;14.50;95.00;;;;;;5037804;28;20766;-84
2022/05/04 08:33:55;;;;;;;11.47;4.70;;;14.90;94.00;;;;;;5038771;28;20173;-84
2022/05/04 08:36:21;;;;;;;14.87;4.70;;;15.00;94.20;;;;;;5039547;28;20255;-84
2022/05/04 08:38:47;;;;;;;16.23;4.90;;;14.50;94.20;;;;;;5040790;28;20181;-85
2022/05/04 08:41:12;;;;;;;13.87;4.70;;;14.90;93.50;;;;;;5038120;28;20173;-84
2022/05/04 08:43:39;;;;;;;15.13;4.70;;;14.90;93.10;;;;;;5038932;28;20797;-84
2022/05/04 08:46:05;;;;;;;21.73;4.50;;;14.80;93.40;;;;;;5035196;28;20205;-84
2022/05/04 08:48:32;;;;;;;15.33;4.70;;;15.50;93.40;;;;;;5052868;28;20169;-84
2022/05/04 08:51:09;;;;;;;19.00;5.13;;;15.40;92.30;;;;;;5043118;23;20591;-80
2022/05/04 08:53:36;;;;;;;16.97;4.80;;;15.20;93.30;;;;;;5015333;28;20308;-78
2022/05/04 08:56:02;;;;;;;15.27;4.60;;;15.70;92.90;;;;;;5013852;28;20289;-80
2022/05/04 08:58:28;;;;;;;16.50;4.70;;;14.80;91.60;;;;;;5033106;28;20666;-81
2022/05/04 09:00:54;;;;;;;18.13;5.07;;;15.10;92.80;;;;;;5033237;28;20170;-80
2022/05/04 09:03:21;;;;;;;16.03;4.97;;;15.30;91.80;;;;;;5032736;28;20669;-80
2022/05/04 09:05:47;;;;;;;16.60;4.77;;;14.80;92.00;;;;;;5033713;28;20223;-80
2022/05/04 09:08:13;;;;;;;14.40;5.10;;;15.70;92.10;;;;;;5032950;28;20166;-80
2022/05/04 09:10:40;;;;;;;14.13;5.13;;;17.10;91.00;;;;;;5032953;28;20681;-80
2022/05/04 09:13:07;;;;;;;15.97;4.40;;;16.70;91.00;;;;;;5032712;28;20167;-80
2022/05/04 09:15:35;;;;;;;13.35;4.47;;;17.20;91.30;;;;;;5015503;28;20170;-80
2022/05/04 09:18:03;;;;;;;12.98;4.35;;;16.90;90.70;;;;;;5033224;28;20650;-80
2022/05/04 09:23:33;;;;;;;17.85;5.10;;;16.10;89.90;;;;;;4972495;28;20259;-80
2022/05/04 09:26:02;;;;;;;12.75;5.13;;;16.30;90.00;;;;;;5020239;28;20241;-80
2022/05/04 09:28:32;;;;;;;17.55;4.55;;;16.50;88.30;;;;;;5015899;28;20521;-80
2022/05/04 09:31:03;;;;;;;15.13;4.97;;;17.50;88.50;;;;;;5033131;28;20253;-80
2022/05/04 09:33:32;;;;;;;16.17;4.70;;;16.70;88.20;;;;;;5033146;28;20705;-80
2022/05/04 09:35:59;;;;;;;13.43;4.53;;;16.80;89.00;;;;;;5015518;28;20182;-80
2022/05/04 09:46:46;;;;;;;14.45;4.93;;;17.60;89.20;;;;;;5033016;28;20615;-80
2022/05/04 09:49:23;;;;;;;9.50;5.07;;;17.90;87.20;;;;;;5030732;28;20697;-80
2022/05/04 09:51:53;;;;;;;15.10;5.20;;;17.70;85.10;;;;;;5032864;28;20181;-80
2022/05/04 09:54:24;;;;;;;11.52;5.40;;;17.40;85.10;;;;;;5033242;28;20173;-80
2022/05/04 09:56:54;;;;;;;21.70;5.72;;;17.00;88.00;;;;;;5033068;28;20297;-81
2022/05/04 09:59:23;;;;;;;16.73;5.65;;;18.40;87.40;;;;;;5032790;28;20166;-80
2022/05/04 10:01:51;;;;;;;14.63;5.68;;;17.60;85.00;;;;;;5032182;28;20197;-81
2022/05/04 10:04:20;;;;;;;13.77;5.82;;;17.90;85.50;;;;;;5033815;28;20686;-80
2022/05/04 10:06:47;;;;;;;13.32;5.40;;;18.70;85.80;;;;;;5033298;28;20232;-80
2022/05/04 10:09:13;;;;;;;14.45;5.22;;;19.70;81.90;;;;;;5032838;28;20177;-80
2022/05/04 10:11:39;;;;;;;14.52;5.07;;;19.60;83.30;;;;;;5029349;28;20166;-80
2022/05/04 10:14:15;;;;;;;14.80;6.07;;;19.40;81.50;;;;;;5028810;28;20162;-80
2022/05/04 10:17:06;;;;;;;12.15;5.65;;;18.80;81.80;;;;;;5011022;28;20673;-80
2022/05/04 10:20:00;;;;;;;14.40;5.75;;;17.40;83.90;;;;;;5031846;28;20177;-79
2022/05/04 10:23:03;;;;;;;13.07;6.47;;;18.00;85.80;;;;;;5031508;28;20251;-79
2022/05/04 10:25:34;;;;;;;10.80;5.28;;;17.70;83.80;;;;;;5031510;28;20176;-80
2022/05/04 10:28:13;;;;;;;13.90;5.65;;;19.10;83.00;;;;;;5031831;28;20198;-80
2022/05/04 10:30:46;;;;;;;20.70;6.65;;;19.40;82.50;;;;;;5031039;28;20216;-80
2022/05/04 10:33:14;;;;;;;12.35;6.55;;;18.80;83.10;;;;;;5030756;28;20173;-81
2022/05/04 10:35:43;;;;;;;18.95;7.30;;;18.60;81.30;;;;;;5031532;28;20406;-80
2022/05/04 10:38:28;;;;;;;11.80;6.10;;;19.40;85.80;;;;;;5032386;28;20687;-80
2022/05/04 10:40:55;;;;;;;14.77;6.85;;;20.20;82.70;;;;;;5031949;28;20241;-81
2022/05/04 10:43:43;;;;;;;14.82;6.53;;;19.30;81.00;;;;;;5031554;28;20249;-81
2022/05/04 10:46:13;;;;;;;13.77;6.88;;;19.90;82.90;;;;;;5031966;28;20261;-80
2022/05/04 10:48:42;;;;;;;17.25;6.38;;;20.70;79.10;;;;;;5014228;28;20542;-80
2022/05/04 10:51:18;;;;;;;13.80;6.03;;;19.90;77.50;;;;;;5031092;28;20654;-81
2022/05/04 10:53:51;;;;;;;11.52;7.15;;;20.70;76.70;;;;;;5031875;28;20735;-81
2022/05/04 10:56:20;;;;;;;17.08;7.25;;;20.00;75.60;;;;;;5031743;28;20270;-80
2022/05/04 10:58:53;;;;;;;21.88;7.65;;;21.10;76.80;;;;;;5031898;28;20557;-80
2022/05/04 11:01:34;;;;;;;18.60;7.07;;;19.40;77.70;;;;;;5014016;28;20231;-80
2022/05/04 11:04:14;;;;;;;17.77;8.30;;;20.40;80.10;;;;;;5014336;28;20261;-81
2022/05/04 11:06:40;;;;;;;15.65;7.97;;;20.40;78.40;;;;;;5031758;28;20213;-81
2022/05/04 11:09:10;;;;;;;16.85;7.35;;;20.80;79.40;;;;;;5032330;28;20166;-81
2022/05/04 11:11:36;;;;;;;13.85;7.20;;;20.60;76.90;;;;;;5017695;28;20166;-81
2022/05/04 11:14:04;;;;;;;12.98;8.23;;;19.10;80.50;;;;;;5035118;28;20168;-82
2022/05/04 11:16:30;;;;;;;20.33;7.97;;;18.40;81.70;;;;;;5014672;28;20202;-80
2022/05/04 11:18:58;;;;;;;14.00;7.00;;;19.20;80.10;;;;;;5035053;28;20232;-81
2022/05/04 11:21:25;;;;;;;12.32;7.78;;;19.60;81.00;;;;;;5034535;28;20212;-80
2022/05/04 11:23:52;;;;;;;14.73;8.15;;;19.50;81.90;;;;;;5035208;28;20602;-80
2022/05/04 11:26:23;;;;;;;12.15;6.78;;;20.60;81.70;;;;;;5034591;28;20213;-81
2022/05/04 11:28:50;;;;;;;16.90;8.02;;;21.20;77.80;;;;;;5017069;28;20174;-80
2022/05/04 11:31:16;;;;;;;16.95;8.80;;;20.70;76.90;;;;;;5016138;28;20189;-80
2022/05/04 11:33:44;;;;;;;16.95;7.00;;;19.90;75.70;;;;;;5034927;28;20241;-80
2022/05/04 11:36:10;;;;;;;15.90;7.38;;;19.90;76.20;;;;;;5016650;28;20288;-80
2022/05/04 11:38:36;;;;;;;18.15;9.02;;;21.30;76.70;;;;;;5016279;28;20178;-80
2022/05/04 11:41:02;;;;;;;17.25;7.97;;;22.00;71.60;;;;;;5034053;28;20948;-81
2022/05/04 11:43:28;;;;;;;13.98;8.55;;;22.20;74.70;;;;;;5034639;28;20170;-81
2022/05/04 11:45:55;;;;;;;14.98;7.85;;;21.10;71.80;;;;;;5034660;28;20676;-80
2022/05/04 11:48:21;;;;;;;17.40;7.70;;;21.30;76.50;;;;;;5016986;28;20174;-81
2022/05/04 11:50:47;;;;;;;14.95;7.32;;;21.30;74.40;;;;;;5034142;28;20681;-81
2022/05/04 11:53:14;;;;;;;12.75;6.72;;;21.30;73.40;;;;;;5015802;28;20268;-81
2022/05/04 11:55:39;;;;;;;11.90;7.15;;;21.00;77.20;;;;;;5033776;28;20742;-81
2022/05/04 11:58:10;;;;;;;13.65;6.40;;;21.10;74.90;;;;;;5016316;28;20218;-81
2022/05/04 12:00:36;;;;;;;18.00;6.97;;;20.30;76.80;;;;;;5016678;28;20185;-82
2022/05/04 12:03:04;;;;;;;15.50;6.68;;;20.20;74.60;;;;;;5016191;28;20634;-81
2022/05/04 12:05:30;;;;;;;15.65;7.40;;;20.90;75.60;;;;;;5034598;28;20240;-80
2022/05/04 12:07:55;;;;;;;13.23;7.40;;;20.60;72.60;;;;;;5034319;28;20202;-81
2022/05/04 12:10:22;;;;;;;14.48;6.50;;;19.80;76.90;;;;;;5034231;28;20173;-82
2022/05/04 12:12:47;;;;;;;15.85;7.15;;;20.30;76.40;;;;;;5016129;28;20177;-80
2022/05/04 12:15:16;;;;;;;12.70;7.00;;;20.80;74.50;;;;;;5016538;28;20174;-81
2022/05/04 12:17:42;;;;;;;15.73;7.05;;;20.20;74.60;;;;;;5031750;28;20190;-81
2022/05/04 12:20:07;;;;;;;16.08;6.63;;;21.10;75.30;;;;;;5017191;28;20273;-81
2022/05/04 12:22:33;;;;;;;13.05;6.88;;;21.40;74.90;;;;;;5034207;28;20204;-82
2022/05/04 12:25:00;;;;;;;13.32;6.50;;;20.70;74.50;;;;;;5017052;28;20197;-82
2022/05/04 12:27:26;;;;;;;10.18;6.15;;;20.20;75.10;;;;;;5034200;28;20201;-81
2022/05/04 12:35:31;;;;;;;13.82;6.50;;;19.30;73.60;;;;;;5034076;28;20228;-81
2022/05/04 12:37:58;;;;;;;12.60;5.80;;;19.10;75.10;;;;;;5016830;28;20193;-81
2022/05/04 12:40:26;;;;;;;12.57;5.70;;;19.50;74.40;;;;;;5013720;28;20174;-80
2022/05/04 12:42:51;;;;;;;12.27;6.43;;;19.80;75.10;;;;;;5033110;28;20966;-80
2022/05/04 12:45:18;;;;;;;10.40;5.78;;;19.40;72.10;;;;;;5033474;28;20170;-81
2022/05/04 12:47:44;;;;;;;10.50;5.57;;;19.10;76.30;;;;;;5033771;28;20570;-81
2022/05/04 12:50:09;;;;;;;13.98;6.28;;;19.40;75.00;;;;;;5033413;28;20166;-80
2022/05/04 12:52:37;;;;;;;12.73;6.15;;;18.60;73.50;;;;;;5032544;28;20186;-80
2022/05/04 12:55:03;;;;;;;13.15;6.03;;;18.40;76.80;;;;;;5015529;28;20197;-81
2022/05/04 12:57:29;;;;;;;12.18;5.88;;;18.70;76.40;;;;;;5033010;28;20190;-80
2022/05/04 12:59:54;;;;;;;13.27;5.80;;;19.10;74.20;;;;;;5033363;28;20177;-81
2022/05/04 13:02:20;;;;;;;15.30;5.88;;;19.00;75.40;;;;;;5032538;28;20174;-78
2022/05/04 13:04:45;;;;;;;13.98;5.97;;;19.00;72.90;;;;;;5032907;28;20619;-80
2022/05/04 13:07:11;;;;;;;11.40;5.88;;;19.00;73.90;;;;;;5032737;28;20194;-81
2022/05/04 13:09:36;;;;;;;9.27;5.22;;;19.10;72.20;;;;;;5033441;28;20174;-82
2022/05/04 13:12:02;;;;;;;13.70;5.75;;;19.30;72.60;;;;;;5014959;28;20200;-81
2022/05/04 13:14:28;;;;;;;10.53;5.57;;;19.00;71.80;;;;;;5014702;28;20174;-81
2022/05/04 13:16:54;;;;;;;11.63;5.35;;;19.00;76.20;;;;;;5030556;28;20689;-80
2022/05/04 13:19:19;;;;;;;10.68;5.57;;;19.20;76.30;;;;;;5032495;28;20304;-80